Time;durP1;ratioP1;P1;durP2;ratioP2;P2;SDS_P1;SDS_P2;PMS_P1;PMS_P2;Temp;Humidity;BMP_temperature;BMP_pressure;BME280_temperature;BME280_humidity;BME280_pressure;Samples;Min_cycle;Max_cycle;Signal;HPM_P1;HPM_P2
2023/04/24 00:01:23;;;;;;;;;;;;;;;9.88;54.46;99702.81;215916;1254;61249;-74
2023/04/24 00:06:16;;;;;;;;;;;;;;;9.79;54.87;99698.63;215794;1254;61343;-74
2023/04/24 00:11:10;;;;;;;;;;;;;;;9.74;54.90;99693.94;215980;1253;61331;-74
2023/04/24 00:16:03;;;;;;;;;;;;;;;9.67;54.92;99690.27;216035;1253;61499;-75
2023/04/24 00:20:55;;;;;;;;;;;;;;;9.60;55.26;99684.36;215915;1253;61251;-74
2023/04/24 00:25:48;;;;;;;;;;;;;;;9.48;55.67;99678.77;215860;1253;61356;-75
2023/04/24 00:30:41;;;;;;;;;;;;;;;9.38;55.81;99678.89;215976;1254;61339;-75
2023/04/24 00:35:34;;;;;;;;;;;;;;;9.24;56.23;99679.33;216147;1253;61246;-74
2023/04/24 00:40:27;;;;;;;;;;;;;;;9.19;56.67;99678.61;215933;1254;61241;-74
2023/04/24 00:45:20;;;;;;;;;;;;;;;9.10;56.79;99682.19;216044;1254;61271;-75
2023/04/24 00:50:15;;;;;;;;;;;;;;;9.03;57.20;99679.37;215903;1253;61291;-74
2023/04/24 00:55:08;;;;;;;;;;;;;;;9.03;57.02;99680.24;216022;1253;69797;-74
2023/04/24 01:00:01;;;;;;;;;;;;;;;9.03;56.85;99675.23;215968;1253;66793;-74
2023/04/24 01:04:54;;;;;;;;;;;;;;;8.98;56.90;99670.70;215867;1254;61262;-73
2023/04/24 01:09:48;;;;;;;;;;;;;;;8.88;57.21;99670.27;215926;1253;61240;-74
2023/04/24 01:14:41;;;;;;;;;;;;;;;8.75;57.64;99675.54;215881;1253;72969;-74
2023/04/24 01:19:34;;;;;;;;;;;;;;;8.68;57.87;99670.48;215863;1255;61272;-74
2023/04/24 01:24:29;;;;;;;;;;;;;;;8.67;57.73;99663.21;215829;1254;66008;-74
2023/04/24 01:29:22;;;;;;;;;;;;;;;8.60;58.08;99663.51;215743;1254;61295;-74
2023/04/24 01:34:15;;;;;;;;;;;;;;;8.52;58.41;99667.25;215882;1253;61908;-74
2023/04/24 01:39:08;;;;;;;;;;;;;;;8.49;58.64;99672.91;215858;1253;61368;-75
2023/04/24 01:44:01;;;;;;;;;;;;;;;8.51;58.79;99654.45;215831;1254;61368;-74
2023/04/24 01:48:54;;;;;;;;;;;;;;;8.55;58.51;99650.50;215842;1253;61356;-74
2023/04/24 01:53:47;;;;;;;;;;;;;;;8.52;58.83;99657.04;215876;1254;61489;-74
2023/04/24 01:58:40;;;;;;;;;;;;;;;8.44;59.12;99665.09;215833;1253;61373;-74
2023/04/24 02:03:33;;;;;;;;;;;;;;;8.46;59.15;99649.40;215909;1254;61254;-74
2023/04/24 02:08:26;;;;;;;;;;;;;;;8.47;59.02;99645.61;215901;1253;61816;-74
2023/04/24 02:13:18;;;;;;;;;;;;;;;8.41;59.34;99653.13;215895;1255;61356;-74
2023/04/24 02:18:12;;;;;;;;;;;;;;;8.34;59.51;99647.19;215846;1254;61277;-74
2023/04/24 02:23:05;;;;;;;;;;;;;;;8.31;59.70;99642.50;215982;1253;73375;-74
2023/04/24 02:27:58;;;;;;;;;;;;;;;8.29;59.76;99640.93;215929;1253;61277;-74
2023/04/24 02:32:51;;;;;;;;;;;;;;;8.21;59.72;99639.30;215985;1253;61272;-74
2023/04/24 02:37:44;;;;;;;;;;;;;;;8.18;59.98;99633.92;215776;1253;61331;-74
2023/04/24 02:42:37;;;;;;;;;;;;;;;8.11;59.93;99630.58;215649;1253;61256;-74
2023/04/24 02:47:30;;;;;;;;;;;;;;;8.03;60.10;99622.05;215617;1254;61398;-74
2023/04/24 02:52:22;;;;;;;;;;;;;;;8.01;60.08;99614.61;215659;1253;61336;-74
2023/04/24 02:57:15;;;;;;;;;;;;;;;7.97;60.09;99615.10;216691;1253;61272;-74
2023/04/24 03:02:08;;;;;;;;;;;;;;;7.90;60.32;99616.06;215633;1256;61329;-74
2023/04/24 03:07:01;;;;;;;;;;;;;;;7.80;60.52;99614.23;215865;1256;61977;-73
2023/04/24 03:11:53;;;;;;;;;;;;;;;7.69;60.54;99614.61;215847;1253;61337;-74
2023/04/24 03:16:46;;;;;;;;;;;;;;;7.60;60.97;99612.98;215766;1254;61264;-74
2023/04/24 03:21:40;;;;;;;;;;;;;;;7.52;60.95;99612.20;215685;1254;61353;-74
2023/04/24 03:26:33;;;;;;;;;;;;;;;7.49;61.12;99611.29;215756;1253;61269;-74
2023/04/24 03:31:38;;;;;;;;;;;;;;;7.44;61.15;99614.52;215669;1253;61280;-74
2023/04/24 03:36:32;;;;;;;;;;;;;;;7.34;61.48;99615.95;215625;1257;74666;-74
2023/04/24 03:41:24;;;;;;;;;;;;;;;7.30;61.67;99618.46;215663;1253;72319;-74
2023/04/24 03:46:33;;;;;;;;;;;;;;;7.30;61.86;99617.25;215628;1253;61273;-74
2023/04/24 03:51:27;;;;;;;;;;;;;;;7.30;61.75;99620.53;215750;1254;67119;-74
2023/04/24 03:56:22;;;;;;;;;;;;;;;7.29;61.93;99616.73;215760;1253;61326;-74
2023/04/24 04:01:15;;;;;;;;;;;;;;;7.50;61.83;99614.05;215694;1257;61433;-74
2023/04/24 04:06:15;;;;;;;;;;;;;;;7.83;61.52;99615.63;215673;1257;71147;-74
2023/04/24 04:11:07;;;;;;;;;;;;;;;7.99;61.31;99621.15;215738;1255;61250;-74
2023/04/24 04:16:00;;;;;;;;;;;;;;;7.83;61.21;99626.51;215674;1253;61343;-74
2023/04/24 04:20:53;;;;;;;;;;;;;;;7.71;61.52;99639.65;215739;1254;61347;-74
2023/04/24 04:25:46;;;;;;;;;;;;;;;7.74;61.72;99639.34;215685;1256;61350;-74
2023/04/24 04:30:41;;;;;;;;;;;;;;;7.85;61.94;99636.52;215630;1253;71944;-75
2023/04/24 04:35:34;;;;;;;;;;;;;;;7.91;61.82;99637.98;215791;1253;61253;-75
2023/04/24 04:40:28;;;;;;;;;;;;;;;7.97;61.69;99631.84;215867;1253;68102;-74
2023/04/24 04:45:27;;;;;;;;;;;;;;;8.07;61.85;99630.54;215817;1254;61274;-74
2023/04/24 04:50:59;;;;;;;;;;;;;;;8.13;61.76;99629.73;214930;1259;73656;-74
2023/04/24 04:55:52;;;;;;;;;;;;;;;8.23;61.71;99627.59;215412;1253;72302;-74
2023/04/24 05:00:48;;;;;;;;;;;;;;;8.36;61.56;99623.04;215772;1256;61326;-74
2023/04/24 05:05:46;;;;;;;;;;;;;;;8.56;61.62;99623.92;215699;1254;66686;-74
2023/04/24 05:10:39;;;;;;;;;;;;;;;8.76;61.56;99617.33;215876;1253;61261;-74
2023/04/24 05:15:33;;;;;;;;;;;;;;;8.87;61.66;99613.25;215687;1257;74478;-74
2023/04/24 05:20:26;;;;;;;;;;;;;;;8.90;61.67;99612.05;215662;1257;71062;-74
2023/04/24 05:25:19;;;;;;;;;;;;;;;8.90;61.71;99613.61;215810;1253;61270;-74
2023/04/24 05:30:18;;;;;;;;;;;;;;;8.92;61.91;99613.98;215811;1253;66789;-75
2023/04/24 05:35:11;;;;;;;;;;;;;;;8.96;61.93;99611.92;215842;1253;61217;-74
2023/04/24 05:40:05;;;;;;;;;;;;;;;9.06;61.76;99606.10;215798;1253;61213;-74
2023/04/24 05:44:58;;;;;;;;;;;;;;;9.19;62.13;99602.54;215670;1254;70702;-74
2023/04/24 05:49:51;;;;;;;;;;;;;;;9.36;62.03;99603.30;215808;1253;61299;-74
2023/04/24 05:54:44;;;;;;;;;;;;;;;9.56;62.19;99603.38;215890;1255;67146;-74
2023/04/24 05:59:39;;;;;;;;;;;;;;;9.80;62.40;99601.36;215774;1253;61302;-75
2023/04/24 06:04:33;;;;;;;;;;;;;;;10.05;62.26;99603.31;215928;1253;74384;-74
2023/04/24 06:09:27;;;;;;;;;;;;;;;10.23;62.22;99604.38;215804;1253;73054;-74
2023/04/24 06:14:20;;;;;;;;;;;;;;;10.55;61.86;99602.31;216053;1253;61384;-74
2023/04/24 06:19:49;;;;;;;;;;;;;;;11.75;60.24;99597.59;215359;1258;65768;-74
2023/04/24 06:24:43;;;;;;;;;;;;;;;12.15;59.82;99588.51;215824;1257;61240;-74
2023/04/24 06:29:36;;;;;;;;;;;;;;;12.30;59.78;99578.84;215850;1256;61369;-74
2023/04/24 06:34:30;;;;;;;;;;;;;;;12.52;59.43;99576.05;215670;1254;72759;-74
2023/04/24 06:39:23;;;;;;;;;;;;;;;12.80;59.17;99569.68;215599;1256;61364;-74
2023/04/24 06:44:16;;;;;;;;;;;;;;;13.63;58.32;99557.14;215576;1257;61247;-74
2023/04/24 06:49:09;;;;;;;;;;;;;;;16.16;55.30;99549.06;215783;1254;61230;-75
2023/04/24 06:54:02;;;;;;;;;;;;;;;18.39;52.09;99543.19;215709;1253;73687;-75
2023/04/24 06:58:55;;;;;;;;;;;;;;;20.07;49.78;99540.53;215895;1253;61368;-75
2023/04/24 07:03:48;;;;;;;;;;;;;;;21.61;47.18;99539.09;215951;1253;61392;-76
2023/04/24 07:08:43;;;;;;;;;;;;;;;23.04;44.84;99538.05;215830;1253;65826;-74
2023/04/24 07:13:36;;;;;;;;;;;;;;;23.52;42.86;99530.69;215737;1253;61959;-74
2023/04/24 07:18:29;;;;;;;;;;;;;;;22.69;43.07;99525.54;215726;1256;61407;-74
2023/04/24 07:23:21;;;;;;;;;;;;;;;22.48;42.86;99528.35;215793;1253;61355;-76
2023/04/24 07:28:14;;;;;;;;;;;;;;;26.13;39.32;99518.64;215876;1253;61395;-75
2023/04/24 07:33:07;;;;;;;;;;;;;;;29.27;35.87;99512.83;215853;1256;61247;-75
2023/04/24 07:38:00;;;;;;;;;;;;;;;31.65;33.77;99512.45;215872;1256;61247;-75
2023/04/24 07:42:53;;;;;;;;;;;;;;;31.88;32.38;99514.85;215951;1256;61355;-75
2023/04/24 07:47:46;;;;;;;;;;;;;;;32.07;31.15;99509.45;215775;1256;61359;-75
2023/04/24 07:52:39;;;;;;;;;;;;;;;31.51;30.16;99511.23;215766;1253;61451;-75
2023/04/24 07:57:32;;;;;;;;;;;;;;;29.85;30.25;99500.81;215954;1253;61368;-75
2023/04/24 08:02:26;;;;;;;;;;;;;;;28.24;30.62;99501.45;215787;1258;61330;-75
2023/04/24 08:07:20;;;;;;;;;;;;;;;29.60;29.48;99493.98;215970;1254;73961;-74
2023/04/24 08:12:13;;;;;;;;;;;;;;;29.53;29.37;99493.16;215779;1257;61212;-75
2023/04/24 08:17:05;;;;;;;;;;;;;;;28.85;29.87;99491.38;215734;1259;61291;-74
2023/04/24 08:21:58;;;;;;;;;;;;;;;28.10;29.87;99493.55;215878;1255;61331;-76
2023/04/24 08:26:51;;;;;;;;;;;;;;;27.73;30.09;99492.22;215648;1256;61349;-75
2023/04/24 08:31:44;;;;;;;;;;;;;;;28.22;29.32;99486.45;215823;1253;61366;-75
2023/04/24 08:36:37;;;;;;;;;;;;;;;29.02;28.80;99485.84;215850;1253;62328;-74
2023/04/24 08:41:42;;;;;;;;;;;;;;;29.00;28.44;99478.27;215811;1254;61336;-74
2023/04/24 08:46:36;;;;;;;;;;;;;;;27.61;29.37;99483.31;215741;1253;65629;-75
2023/04/24 08:51:30;;;;;;;;;;;;;;;27.61;30.12;99488.98;215941;1253;61214;-74
2023/04/24 08:56:24;;;;;;;;;;;;;;;28.84;28.96;99480.40;215799;1254;73391;-75
2023/04/24 09:01:17;;;;;;;;;;;;;;;29.67;27.87;99473.67;215784;1253;73590;-76
2023/04/24 09:06:12;;;;;;;;;;;;;;;29.68;28.58;99477.11;215850;1253;61395;-73
2023/04/24 09:11:04;;;;;;;;;;;;;;;29.49;27.59;99480.48;215948;1253;67810;-74
2023/04/24 09:16:00;;;;;;;;;;;;;;;30.56;27.63;99480.66;215744;1258;211055;-75
2023/04/24 09:21:08;;;;;;;;;;;;;;;30.67;27.51;99478.67;216042;1257;75405;-74
2023/04/24 09:26:01;;;;;;;;;;;;;;;30.84;26.35;99480.96;216026;1257;70342;-74
2023/04/24 09:31:07;;;;;;;;;;;;;;;31.18;26.16;99476.75;215856;1254;61351;-75
2023/04/24 09:36:00;;;;;;;;;;;;;;;32.18;25.28;99474.52;215963;1253;65807;-76
2023/04/24 09:40:53;;;;;;;;;;;;;;;31.60;25.56;99471.02;216033;1254;61352;-76
2023/04/24 09:45:46;;;;;;;;;;;;;;;31.23;25.95;99472.70;215969;1253;61356;-76
2023/04/24 09:50:39;;;;;;;;;;;;;;;31.63;25.13;99470.02;216128;1253;61262;-74
2023/04/24 09:55:31;;;;;;;;;;;;;;;31.51;25.21;99467.35;216017;1254;61272;-75
2023/04/24 10:00:25;;;;;;;;;;;;;;;30.31;26.04;99460.83;215974;1257;61369;-75
2023/04/24 10:05:18;;;;;;;;;;;;;;;29.38;26.62;99456.70;215757;1253;61364;-74
2023/04/24 10:10:11;;;;;;;;;;;;;;;31.09;26.19;99450.06;215908;1256;61257;-74
2023/04/24 10:15:05;;;;;;;;;;;;;;;33.59;24.46;99441.39;215882;1253;61250;-74
2023/04/24 10:19:59;;;;;;;;;;;;;;;35.11;23.20;99442.15;215847;1254;61848;-75
2023/04/24 10:24:52;;;;;;;;;;;;;;;35.99;22.12;99438.44;215997;1253;67194;-76
2023/04/24 10:29:46;;;;;;;;;;;;;;;36.77;21.27;99430.52;215752;1254;61257;-75
2023/04/24 10:34:39;;;;;;;;;;;;;;;37.17;20.66;99424.52;215882;1254;75120;-75
2023/04/24 10:39:33;;;;;;;;;;;;;;;37.35;20.32;99418.15;216072;1253;61402;-76
2023/04/24 10:44:26;;;;;;;;;;;;;;;37.47;20.25;99409.98;215890;1253;61324;-75
2023/04/24 10:49:28;;;;;;;;;;;;;;;37.48;20.08;99408.93;215847;1253;67881;-76
2023/04/24 10:54:36;;;;;;;;;;;;;;;37.33;20.03;99401.19;215770;1258;61376;-75
2023/04/24 10:59:37;;;;;;;;;;;;;;;36.93;19.33;99398.84;215794;1255;74729;-75
2023/04/24 11:04:34;;;;;;;;;;;;;;;36.39;19.17;99396.10;216147;1259;72394;-74
2023/04/24 11:09:29;;;;;;;;;;;;;;;35.93;19.33;99393.06;215859;1257;61302;-74
2023/04/24 11:14:22;;;;;;;;;;;;;;;35.75;19.59;99393.48;215714;1253;65806;-75
2023/04/24 11:19:15;;;;;;;;;;;;;;;35.64;19.68;99383.49;216122;1258;61224;-74
2023/04/24 11:24:27;;;;;;;;;;;;;;;34.77;18.91;99391.52;215840;1254;75894;-74
2023/04/24 11:29:21;;;;;;;;;;;;;;;34.47;20.56;99382.53;216164;1254;72379;-75
2023/04/24 11:34:16;;;;;;;;;;;;;;;34.47;20.99;99377.66;215768;1258;61343;-74
2023/04/24 11:39:10;;;;;;;;;;;;;;;33.68;20.35;99380.60;215764;1258;67874;-74
2023/04/24 11:44:04;;;;;;;;;;;;;;;32.26;20.73;99379.28;215894;1257;61335;-75
2023/04/24 11:48:57;;;;;;;;;;;;;;;31.23;21.68;99380.50;216450;1257;74616;-75
2023/04/24 11:53:50;;;;;;;;;;;;;;;30.27;22.26;99380.70;216038;1254;71932;-75
2023/04/24 11:58:55;;;;;;;;;;;;;;;29.82;22.99;99374.39;216039;1252;60121;-75
2023/04/24 12:03:50;;;;;;;;;;;;;;;29.68;22.96;99372.49;215902;1258;67987;-75
2023/04/24 12:08:46;;;;;;;;;;;;;;;29.33;22.92;99368.59;216014;1254;61254;-75
2023/04/24 12:13:39;;;;;;;;;;;;;;;29.36;23.88;99361.94;215946;1254;75454;-75
2023/04/24 12:18:32;;;;;;;;;;;;;;;29.34;23.44;99360.31;215770;1257;61358;-75
2023/04/24 12:23:35;;;;;;;;;;;;;;;29.09;23.53;99349.54;215880;1254;61243;-75
2023/04/24 12:28:35;;;;;;;;;;;;;;;29.11;23.82;99344.73;215939;1255;67916;-74
2023/04/24 12:33:28;;;;;;;;;;;;;;;29.05;23.66;99338.26;215700;1255;61266;-75
2023/04/24 12:38:25;;;;;;;;;;;;;;;29.02;23.81;99336.52;215792;1257;61384;-75
2023/04/24 12:43:19;;;;;;;;;;;;;;;29.12;23.05;99331.27;215863;1254;72625;-74
2023/04/24 12:48:13;;;;;;;;;;;;;;;29.26;22.84;99322.76;216040;1254;61202;-74
2023/04/24 12:53:07;;;;;;;;;;;;;;;29.12;22.35;99325.87;215845;1254;66806;-75
2023/04/24 12:58:01;;;;;;;;;;;;;;;28.16;24.05;99333.41;215925;1254;61238;-76
2023/04/24 13:02:54;;;;;;;;;;;;;;;27.97;25.00;99339.13;215810;1255;74554;-75
2023/04/24 13:07:47;;;;;;;;;;;;;;;27.39;25.50;99358.55;215985;1254;72586;-76
2023/04/24 13:12:40;;;;;;;;;;;;;;;26.88;26.36;99380.96;215948;1253;62147;-76
2023/04/24 13:17:33;;;;;;;;;;;;;;;26.30;27.02;99377.92;215895;1255;61333;-75
2023/04/24 13:22:26;;;;;;;;;;;;;;;25.37;27.79;99374.67;216042;1254;61510;-76
2023/04/24 13:27:18;;;;;;;;;;;;;;;24.92;28.92;99387.73;215877;1254;61312;-75
2023/04/24 13:32:11;;;;;;;;;;;;;;;24.60;29.92;99392.04;216021;1257;61266;-77
2023/04/24 13:37:05;;;;;;;;;;;;;;;24.11;30.37;99390.89;216131;1254;61342;-75
2023/04/24 13:41:58;;;;;;;;;;;;;;;23.43;30.81;99385.09;216089;1254;61402;-75
2023/04/24 13:46:56;;;;;;;;;;;;;;;22.91;31.26;99390.81;215985;1254;61263;-75
2023/04/24 13:51:49;;;;;;;;;;;;;;;22.72;31.27;99370.11;215889;1254;73101;-74
2023/04/24 13:56:42;;;;;;;;;;;;;;;22.70;30.72;99358.45;216069;1254;61355;-73
2023/04/24 14:01:35;;;;;;;;;;;;;;;22.61;30.22;99335.05;215814;1256;62008;-74
2023/04/24 14:06:28;;;;;;;;;;;;;;;22.53;30.52;99308.52;215875;1254;66578;-74
2023/04/24 14:11:22;;;;;;;;;;;;;;;22.54;29.93;99309.01;215890;1254;61250;-74
2023/04/24 14:16:15;;;;;;;;;;;;;;;22.61;29.64;99306.96;215782;1257;74525;-74
2023/04/24 14:21:08;;;;;;;;;;;;;;;22.61;29.95;99302.95;215921;1254;72359;-73
2023/04/24 14:26:00;;;;;;;;;;;;;;;22.60;30.08;99300.70;215920;1254;61362;-74
2023/04/24 14:30:54;;;;;;;;;;;;;;;22.63;30.75;99296.45;215865;1253;61358;-74
2023/04/24 14:35:47;;;;;;;;;;;;;;;22.75;31.25;99296.16;215979;1253;61250;-74
2023/04/24 14:40:40;;;;;;;;;;;;;;;22.96;30.88;99289.86;215855;1254;61266;-74
2023/04/24 14:45:37;;;;;;;;;;;;;;;23.39;30.94;99291.11;215869;1254;73959;-74
2023/04/24 14:50:30;;;;;;;;;;;;;;;23.83;30.75;99287.09;216048;1255;61866;-74
2023/04/24 14:55:23;;;;;;;;;;;;;;;24.20;30.08;99281.14;215859;1254;64842;-73
2023/04/24 15:00:16;;;;;;;;;;;;;;;24.49;29.63;99271.52;215827;1254;62033;-74
2023/04/24 15:05:09;;;;;;;;;;;;;;;24.68;29.72;99266.24;215958;1254;74443;-75
2023/04/24 15:10:03;;;;;;;;;;;;;;;24.79;29.09;99263.97;215963;1254;70972;-74
2023/04/24 15:14:56;;;;;;;;;;;;;;;24.57;28.38;99255.48;215950;1254;61256;-74
2023/04/24 15:19:49;;;;;;;;;;;;;;;24.44;28.69;99255.23;215805;1257;61266;-74
2023/04/24 15:24:41;;;;;;;;;;;;;;;24.50;29.06;99248.07;215858;1254;61315;-74
2023/04/24 15:29:34;;;;;;;;;;;;;;;24.38;28.28;99249.05;215917;1254;61400;-74
2023/04/24 15:34:27;;;;;;;;;;;;;;;24.29;28.49;99245.01;215988;1254;61355;-74
2023/04/24 15:39:23;;;;;;;;;;;;;;;24.21;28.12;99239.27;216014;1254;61127;-74
2023/04/24 15:44:16;;;;;;;;;;;;;;;24.08;28.33;99235.02;215777;1257;66826;-74
2023/04/24 15:49:08;;;;;;;;;;;;;;;24.04;28.06;99230.45;215839;1254;61305;-75
2023/04/24 15:54:01;;;;;;;;;;;;;;;24.01;28.75;99225.50;216095;1254;61330;-74
2023/04/24 15:58:54;;;;;;;;;;;;;;;23.93;28.24;99222.77;216457;1254;61372;-74
2023/04/24 16:03:47;;;;;;;;;;;;;;;23.87;29.06;99217.67;216025;1254;61286;-74
2023/04/24 16:08:40;;;;;;;;;;;;;;;23.82;28.90;99217.48;215710;1253;61271;-74
2023/04/24 16:13:33;;;;;;;;;;;;;;;23.70;29.55;99215.00;215896;1254;61312;-74
2023/04/24 16:18:26;;;;;;;;;;;;;;;23.57;29.42;99213.84;215807;1254;61461;-74
2023/04/24 16:23:18;;;;;;;;;;;;;;;23.46;29.70;99205.33;215974;1257;61355;-75
2023/04/24 16:28:11;;;;;;;;;;;;;;;23.32;29.82;99205.48;215919;1254;61218;-74
2023/04/24 16:33:06;;;;;;;;;;;;;;;23.17;30.27;99201.00;216206;1254;61274;-74
2023/04/24 16:37:59;;;;;;;;;;;;;;;22.99;30.63;99203.10;215890;1254;61254;-74
2023/04/24 16:42:53;;;;;;;;;;;;;;;22.76;30.72;99203.71;215989;1253;75925;-74
2023/04/24 16:47:46;;;;;;;;;;;;;;;22.54;30.52;99199.70;215779;1254;72593;-74
2023/04/24 16:52:39;;;;;;;;;;;;;;;22.29;30.41;99202.48;215761;1254;61270;-74
2023/04/24 16:57:32;;;;;;;;;;;;;;;21.98;31.31;99202.91;215751;1254;66505;-74
2023/04/24 17:02:25;;;;;;;;;;;;;;;21.65;32.28;99205.88;215834;1253;61242;-74
2023/04/24 17:07:19;;;;;;;;;;;;;;;21.25;32.86;99207.42;215739;1254;75521;-74
2023/04/24 17:12:11;;;;;;;;;;;;;;;20.83;33.54;99206.30;215872;1254;61651;-74
2023/04/24 17:17:04;;;;;;;;;;;;;;;20.44;34.39;99203.63;215912;1253;65625;-74
2023/04/24 17:21:57;;;;;;;;;;;;;;;20.08;34.65;99204.56;215901;1254;61340;-74
2023/04/24 17:26:50;;;;;;;;;;;;;;;19.80;35.38;99208.50;215972;1253;61301;-74
2023/04/24 17:31:44;;;;;;;;;;;;;;;19.51;36.06;99213.45;216073;1254;73148;-74
2023/04/24 17:36:37;;;;;;;;;;;;;;;19.19;36.32;99215.87;215916;1254;61299;-75
2023/04/24 17:41:30;;;;;;;;;;;;;;;18.86;36.48;99222.48;216032;1254;61090;-74
2023/04/24 17:46:23;;;;;;;;;;;;;;;18.56;37.09;99219.07;215870;1253;61387;-74
2023/04/24 17:51:16;;;;;;;;;;;;;;;18.30;37.75;99223.08;216254;1255;61278;-74
2023/04/24 17:56:08;;;;;;;;;;;;;;;18.07;38.39;99223.09;215876;1253;61353;-74
2023/04/24 18:01:02;;;;;;;;;;;;;;;17.80;38.73;99226.34;215745;1253;61303;-74
2023/04/24 18:05:54;;;;;;;;;;;;;;;17.53;38.79;99225.36;215706;1253;61273;-74
2023/04/24 18:10:49;;;;;;;;;;;;;;;17.30;39.40;99231.77;215963;1254;61208;-74
2023/04/24 18:15:42;;;;;;;;;;;;;;;17.07;39.85;99232.35;216907;1254;61893;-74
2023/04/24 18:20:35;;;;;;;;;;;;;;;16.89;40.37;99236.27;215974;1253;73331;-74
2023/04/24 18:25:28;;;;;;;;;;;;;;;16.68;40.92;99238.14;216121;1253;61301;-74
2023/04/24 18:30:21;;;;;;;;;;;;;;;16.44;41.32;99236.25;216012;1254;61363;-74
2023/04/24 18:35:14;;;;;;;;;;;;;;;16.26;41.55;99243.61;215710;1254;66861;-75
2023/04/24 18:40:09;;;;;;;;;;;;;;;16.10;42.12;99242.69;215850;1253;61298;-74
2023/04/24 18:45:05;;;;;;;;;;;;;;;15.93;42.35;99242.84;215910;1254;74547;-74
2023/04/24 18:49:58;;;;;;;;;;;;;;;15.77;42.65;99248.33;215833;1253;72655;-74
2023/04/24 18:54:51;;;;;;;;;;;;;;;15.63;42.74;99249.21;215833;1253;61218;-73
2023/04/24 18:59:44;;;;;;;;;;;;;;;15.47;43.30;99254.02;215781;1253;67186;-74
2023/04/24 19:04:37;;;;;;;;;;;;;;;15.34;43.70;99259.75;215975;1253;61291;-74
2023/04/24 19:09:30;;;;;;;;;;;;;;;15.22;43.89;99263.70;215961;1253;61302;-74
2023/04/24 19:14:22;;;;;;;;;;;;;;;15.12;43.92;99270.42;215960;1254;61314;-75
2023/04/24 19:19:15;;;;;;;;;;;;;;;15.06;43.75;99267.25;216439;1253;61292;-74
2023/04/24 19:24:09;;;;;;;;;;;;;;;14.99;43.85;99269.19;215823;1253;61474;-74
2023/04/24 19:29:02;;;;;;;;;;;;;;;14.93;44.49;99269.16;216223;1253;61247;-74
2023/04/24 19:33:55;;;;;;;;;;;;;;;14.82;44.67;99259.11;215995;1253;61389;-74
2023/04/24 19:38:49;;;;;;;;;;;;;;;14.70;44.71;99258.18;215946;1257;61956;-73
2023/04/24 19:43:42;;;;;;;;;;;;;;;14.59;45.13;99259.29;215779;1255;61930;-74
2023/04/24 19:48:35;;;;;;;;;;;;;;;14.50;45.15;99262.95;216065;1253;61295;-75
2023/04/24 19:53:28;;;;;;;;;;;;;;;14.48;45.47;99260.20;215756;1256;61259;-75
2023/04/24 19:58:22;;;;;;;;;;;;;;;14.48;45.79;99261.94;215899;1254;74991;-73
2023/04/24 20:03:15;;;;;;;;;;;;;;;14.46;45.59;99254.65;215717;1254;72362;-73
2023/04/24 20:08:23;;;;;;;;;;;;;;;14.41;45.92;99253.56;215969;1256;61318;-74
2023/04/24 20:13:16;;;;;;;;;;;;;;;14.32;46.42;99256.55;215783;1254;67062;-74
2023/04/24 20:18:09;;;;;;;;;;;;;;;14.24;46.51;99256.54;215613;1254;61234;-75
2023/04/24 20:23:02;;;;;;;;;;;;;;;14.12;46.74;99258.02;215686;1253;61353;-74
2023/04/24 20:27:55;;;;;;;;;;;;;;;13.99;47.14;99263.67;215819;1254;61358;-74
2023/04/24 20:32:48;;;;;;;;;;;;;;;13.87;47.11;99270.20;215855;1253;62058;-74
2023/04/24 20:37:41;;;;;;;;;;;;;;;13.75;46.99;99273.38;216108;1253;61241;-74
2023/04/24 20:42:34;;;;;;;;;;;;;;;13.70;48.28;99272.77;215828;1253;63992;-75
2023/04/24 20:47:27;;;;;;;;;;;;;;;13.64;49.10;99279.67;215872;1254;61272;-75
2023/04/24 20:52:20;;;;;;;;;;;;;;;13.54;48.95;99290.48;215791;1255;71571;-75
2023/04/24 20:57:14;;;;;;;;;;;;;;;13.48;49.16;99287.10;215775;1254;61347;-75
2023/04/24 21:02:07;;;;;;;;;;;;;;;13.38;49.67;99292.33;216017;1253;67565;-75
2023/04/24 21:07:00;;;;;;;;;;;;;;;13.26;50.31;99291.09;215890;1254;61357;-75
2023/04/24 21:11:53;;;;;;;;;;;;;;;13.14;50.25;99289.38;215753;1257;75319;-75
2023/04/24 21:16:46;;;;;;;;;;;;;;;13.05;50.50;99295.10;215717;1253;134239;-75
2023/04/24 21:21:39;;;;;;;;;;;;;;;12.97;51.08;99292.42;215484;1254;61349;-74
2023/04/24 21:26:34;;;;;;;;;;;;;;;12.88;51.62;99290.66;216686;1253;61231;-75
2023/04/24 21:31:27;;;;;;;;;;;;;;;12.81;51.44;99295.82;215402;1253;61272;-75
2023/04/24 21:36:20;;;;;;;;;;;;;;;12.76;51.53;99293.10;215394;1253;61772;-75
2023/04/24 21:41:13;;;;;;;;;;;;;;;12.69;52.14;99295.64;215397;1253;61295;-75
2023/04/24 21:46:06;;;;;;;;;;;;;;;12.57;52.19;99294.42;215385;1253;61299;-75
2023/04/24 21:50:59;;;;;;;;;;;;;;;12.44;52.64;99295.45;215433;1253;61379;-75
2023/04/24 21:55:52;;;;;;;;;;;;;;;12.34;52.86;99298.36;215389;1253;61247;-76
2023/04/24 22:00:44;;;;;;;;;;;;;;;12.22;53.19;99293.48;215354;1253;61270;-76
2023/04/24 22:05:37;;;;;;;;;;;;;;;12.13;53.66;99293.25;215505;1257;62925;-75
2023/04/24 22:10:30;;;;;;;;;;;;;;;12.03;54.00;99293.35;215564;1256;62780;-75
2023/04/24 22:15:23;;;;;;;;;;;;;;;11.92;54.08;99294.17;215605;1253;61275;-76
2023/04/24 22:20:16;;;;;;;;;;;;;;;11.84;54.69;99293.37;215666;1256;61235;-75
2023/04/24 22:25:10;;;;;;;;;;;;;;;11.79;54.95;99292.38;215662;1253;61383;-75
2023/04/24 22:30:03;;;;;;;;;;;;;;;11.76;55.22;99295.54;215626;1253;61388;-75
2023/04/24 22:34:56;;;;;;;;;;;;;;;11.65;55.49;99296.34;215681;1253;61270;-76
2023/04/24 22:39:49;;;;;;;;;;;;;;;11.61;55.88;99292.40;215582;1253;61206;-75
2023/04/24 22:44:42;;;;;;;;;;;;;;;11.56;56.06;99295.20;215468;1253;61359;-76
2023/04/24 22:49:35;;;;;;;;;;;;;;;11.50;56.40;99294.41;215603;1254;61282;-76
2023/04/24 22:54:28;;;;;;;;;;;;;;;11.44;56.83;99301.92;215512;1253;72537;-76
2023/04/24 22:59:22;;;;;;;;;;;;;;;11.34;57.24;99305.66;215830;1253;61282;-76
2023/04/24 23:04:15;;;;;;;;;;;;;;;11.24;57.75;99302.96;215765;1256;67753;-76
2023/04/24 23:09:08;;;;;;;;;;;;;;;11.20;58.03;99299.01;215707;1256;61259;-75
2023/04/24 23:14:01;;;;;;;;;;;;;;;11.13;58.39;99297.16;215710;1253;73508;-76
2023/04/24 23:18:54;;;;;;;;;;;;;;;11.06;58.68;99301.02;215739;1253;73352;-75
2023/04/24 23:23:46;;;;;;;;;;;;;;;10.99;58.85;99300.39;215749;1253;61231;-76
2023/04/24 23:28:40;;;;;;;;;;;;;;;10.90;58.97;99297.33;215827;1253;66918;-76
2023/04/24 23:33:33;;;;;;;;;;;;;;;10.81;59.45;99302.25;215808;1253;61231;-75
2023/04/24 23:38:26;;;;;;;;;;;;;;;10.78;59.74;99303.13;215756;1256;61245;-75
2023/04/24 23:43:28;;;;;;;;;;;;;;;10.78;60.00;99290.48;215727;1254;73442;-76
2023/04/24 23:48:20;;;;;;;;;;;;;;;10.73;60.08;99286.52;215825;1253;61275;-76
2023/04/24 23:53:13;;;;;;;;;;;;;;;10.69;60.29;99277.88;215812;1253;61743;-76
2023/04/24 23:58:06;;;;;;;;;;;;;;;10.63;60.31;99274.11;215833;1254;61313;-76
